GNA weather

General Alvear Airport
General Alvear, Mendoza Province, Argentina

Public forecast

Using degrees Celsius for public forecast. Weather courtesy of forecast.io.

METAR (pilot weather report)

Report is more than 6 hours old.

Closest report is Suboficial Ay Santiago Germano Airport, 45.0 nm (83.4 km) NW. Retrieved 2019/05/21 20:00 UTC (23 hours ago):

SAMR 212000Z 18006KT 9999 SCT035 OVC100 05/02 Q1028

TAF (pilot weather forecast)

Forecast is more than 12 hours old.

Closest forecast is Suboficial Ay Santiago Germano Airport, 45.0 nm (83.4 km) NW. Retrieved 2019/04/26 06:15 UTC (27 days ago):

TAF TAF SAMR 260500Z 2606/2706 14005KT 6000 DZBR BKN020 BKN030 TN08/2610ZTX14/2620Z PROB40 TEMPO 2609/2613 09005KT 3000 BR OVC010 BECMG 2614/2616 05010KT 9999 SCT030